Terminal Aerodrome Forecast
Issued by NWS Denver/Boulder, CO

Home | Current Version | Previous Version | Text Only | Print | Product List | Glossary On
Versions: 1 2 3 4 5 6 7 8 9 10 11 12 13 14 15 16 17 18 19 20 21 22 23 24 25 26 27 28 29 30 31 32 33 34 35 36 37 38 39
000
FTUS45 KBOU 300854 AAC
TAFDEN
TAF AMD
KDEN 300854Z 3009/3112 19008KT P6SM BKN120 BKN200
     FM301400 25008KT P6SM SCT120 SCT200
     FM301600 33006KT P6SM FEW090 SCT120 SCT200
     FM302100 04008KT P6SM VCSH SCT090 BKN150 PROB30 3022/3103
      VRB15G25KT -TSRA BKN080CB
     FM310400 08006KT P6SM SCT110 BKN170=

USA.gov is the U.S. government's official web portal to all federal, state and local government web resources and services.